Time;durP1;ratioP1;P1;durP2;ratioP2;P2;SDS_P1;SDS_P2;PMS_P1;PMS_P2;Temp;Humidity;BMP_temperature;BMP_pressure;BME280_temperature;BME280_humidity;BME280_pressure;Samples;Min_cycle;Max_cycle;Signal;HPM_P1;HPM_P2
2022/04/05 00:00:04;;;;;;;10.93;1.70;;;6.70;99.90;;;;;;4959204;28;20514;-85
2022/04/05 00:02:30;;;;;;;7.43;1.98;;;6.80;99.90;;;;;;4975913;28;20089;-80
2022/04/05 00:04:56;;;;;;;10.75;2.10;;;6.90;99.90;;;;;;4991773;28;20054;-80
2022/04/05 00:07:21;;;;;;;11.23;2.10;;;6.70;99.90;;;;;;4959683;28;20038;-79
2022/04/05 00:09:47;;;;;;;10.20;1.90;;;6.70;99.90;;;;;;4975272;28;20117;-79
2022/04/05 00:12:13;;;;;;;9.38;2.08;;;6.70;99.90;;;;;;4973686;28;20100;-80
2022/04/05 00:14:39;;;;;;;9.90;2.13;;;6.70;99.90;;;;;;4975719;28;20401;-79
2022/04/05 00:17:04;;;;;;;6.90;1.98;;;6.70;99.90;;;;;;4959530;28;20042;-80
2022/04/05 00:19:30;;;;;;;7.97;1.48;;;6.70;99.90;;;;;;4990866;28;20042;-80
2022/04/05 00:21:56;;;;;;;8.13;1.90;;;6.70;99.90;;;;;;4989760;28;20133;-80
2022/04/05 00:24:22;;;;;;;11.38;2.50;;;6.70;99.90;;;;;;4991186;28;20104;-80
2022/04/05 00:26:48;;;;;;;11.23;2.00;;;6.60;99.90;;;;;;4975212;28;20084;-80
2022/04/05 00:29:13;;;;;;;9.38;2.08;;;6.60;99.90;;;;;;4957879;28;20038;-79
2022/04/05 00:31:39;;;;;;;7.50;1.73;;;6.60;99.90;;;;;;4958000;28;20046;-80
2022/04/05 00:34:05;;;;;;;11.00;2.40;;;6.60;99.90;;;;;;4973382;28;20093;-80
2022/04/05 00:36:31;;;;;;;9.18;1.73;;;6.60;99.90;;;;;;4962794;28;20104;-83
2022/04/05 00:38:56;;;;;;;11.65;2.05;;;6.50;99.90;;;;;;4988446;28;20046;-83
2022/04/05 00:41:22;;;;;;;12.27;2.13;;;6.50;99.90;;;;;;4956302;28;20046;-83
2022/04/05 00:43:48;;;;;;;8.48;1.63;;;6.50;99.90;;;;;;4939442;28;20632;-83
2022/04/05 00:46:13;;;;;;;9.52;1.85;;;6.60;99.90;;;;;;4973660;28;20039;-83
2022/04/05 00:48:52;;;;;;;7.47;1.90;;;6.50;99.90;;;;;;4958619;28;20045;-83
2022/04/05 00:51:20;;;;;;;8.65;1.95;;;6.50;99.90;;;;;;4974430;28;20053;-83
2022/04/05 00:53:48;;;;;;;8.82;1.80;;;6.60;99.90;;;;;;4958450;28;20042;-85
2022/04/05 00:56:18;;;;;;;8.85;2.00;;;6.50;99.90;;;;;;4991445;28;20042;-85
2022/04/05 00:58:49;;;;;;;9.15;1.83;;;6.50;99.90;;;;;;4990769;28;20038;-85
2022/04/05 01:01:18;;;;;;;7.60;1.52;;;6.50;99.90;;;;;;4972322;28;20438;-85
2022/04/05 01:03:51;;;;;;;11.70;2.08;;;7.30;99.90;;;;;;4990531;28;20129;-85
2022/04/05 01:06:25;;;;;;;6.88;1.80;;;6.50;99.90;;;;;;4991076;28;20045;-85
2022/04/05 01:08:51;;;;;;;5.15;1.38;;;6.50;99.90;;;;;;4990521;28;20042;-80
2022/04/05 01:11:17;;;;;;;7.15;1.55;;;6.50;99.90;;;;;;4989160;28;20049;-80
2022/04/05 01:13:43;;;;;;;8.68;2.45;;;6.50;99.90;;;;;;4988059;28;20061;-80
2022/04/05 01:16:12;;;;;;;8.93;1.85;;;6.50;99.90;;;;;;4986052;28;20038;-80
2022/04/05 01:18:38;;;;;;;6.40;1.50;;;6.50;99.90;;;;;;4973621;28;20133;-80
2022/04/05 01:21:04;;;;;;;9.68;2.20;;;6.60;99.90;;;;;;4958273;28;20039;-80
2022/04/05 01:23:30;;;;;;;8.52;2.03;;;6.60;99.90;;;;;;4974650;28;20034;-80
2022/04/05 01:25:56;;;;;;;9.98;2.30;;;6.60;99.90;;;;;;4974449;28;20042;-80
2022/04/05 01:28:25;;;;;;;12.20;1.83;;;6.60;99.90;;;;;;4958702;28;20026;-80
2022/04/05 01:30:52;;;;;;;7.50;2.00;;;6.70;99.90;;;;;;4964691;28;20060;-80
2022/04/05 01:33:17;;;;;;;10.90;2.17;;;6.90;99.90;;;;;;4958554;28;20042;-80
2022/04/05 01:35:43;;;;;;;8.50;1.75;;;6.60;99.90;;;;;;4942163;28;20046;-80
2022/04/05 01:38:13;;;;;;;9.32;1.98;;;6.70;99.90;;;;;;4958409;28;20074;-80
2022/04/05 01:40:39;;;;;;;5.15;1.67;;;6.70;99.90;;;;;;4990718;28;20390;-80
2022/04/05 01:43:06;;;;;;;9.20;2.08;;;7.10;99.90;;;;;;4957951;28;20092;-85
2022/04/05 01:45:32;;;;;;;9.35;2.05;;;6.70;99.90;;;;;;4990803;28;20046;-85
2022/04/05 01:47:57;;;;;;;11.48;2.67;;;6.70;99.90;;;;;;4956655;28;20039;-86
2022/04/05 01:50:23;;;;;;;10.93;2.80;;;6.70;99.90;;;;;;4973873;28;20392;-86
2022/04/05 01:52:49;;;;;;;12.50;2.35;;;6.70;99.90;;;;;;4987887;28;20125;-85
2022/04/05 01:55:15;;;;;;;10.55;2.05;;;6.70;99.90;;;;;;4986995;28;20041;-85
2022/04/05 01:57:41;;;;;;;9.68;2.13;;;6.70;99.90;;;;;;4956801;28;20042;-86
2022/04/05 02:00:14;;;;;;;12.35;2.70;;;7.30;99.90;;;;;;4988146;28;20484;-83
2022/04/05 02:02:41;;;;;;;9.57;2.42;;;6.70;99.90;;;;;;4987768;28;20069;-83
2022/04/05 02:05:07;;;;;;;9.70;2.45;;;6.70;99.90;;;;;;4954850;28;20047;-83
2022/04/05 02:07:33;;;;;;;10.85;2.63;;;6.70;99.90;;;;;;4971636;28;20042;-83
2022/04/05 02:09:59;;;;;;;13.15;2.53;;;6.70;99.90;;;;;;4956345;28;20045;-83
2022/04/05 02:12:24;;;;;;;13.45;2.90;;;7.40;99.90;;;;;;4969962;28;20031;-83
2022/04/05 02:14:50;;;;;;;17.63;3.05;;;6.70;99.90;;;;;;4957568;28;20034;-82
2022/04/05 02:17:16;;;;;;;11.23;3.10;;;6.70;99.90;;;;;;4956428;28;20038;-81
2022/04/05 02:19:43;;;;;;;17.17;3.33;;;6.70;99.90;;;;;;4972398;28;20038;-81
2022/04/05 02:22:09;;;;;;;12.80;3.03;;;7.50;99.90;;;;;;4992013;28;20104;-81
2022/04/05 02:24:35;;;;;;;13.15;2.80;;;6.80;99.90;;;;;;4960249;28;20519;-82
2022/04/05 02:27:01;;;;;;;15.50;3.25;;;6.70;99.90;;;;;;4960707;28;20053;-81
2022/04/05 02:29:27;;;;;;;17.17;2.78;;;6.80;99.90;;;;;;4975029;28;20424;-81
2022/04/05 02:31:52;;;;;;;12.70;2.75;;;7.00;99.90;;;;;;4959262;28;20042;-83
2022/04/05 02:34:18;;;;;;;11.57;2.30;;;6.80;99.90;;;;;;4974729;28;20044;-83
2022/04/05 02:36:44;;;;;;;11.73;2.72;;;6.80;99.90;;;;;;4977720;28;20065;-83
2022/04/05 02:39:11;;;;;;;9.20;2.35;;;6.80;99.90;;;;;;4958991;28;20043;-83
2022/04/05 02:41:37;;;;;;;12.90;2.60;;;6.70;99.90;;;;;;4958455;28;20050;-83
2022/04/05 02:44:03;;;;;;;13.57;2.85;;;6.80;99.90;;;;;;4990007;28;20042;-83
2022/04/05 02:46:28;;;;;;;14.32;3.03;;;6.80;99.90;;;;;;4958576;28;20153;-83
2022/04/05 02:48:54;;;;;;;15.18;2.78;;;6.80;99.90;;;;;;4974387;28;20396;-81
2022/04/05 02:51:21;;;;;;;13.35;2.60;;;6.80;99.90;;;;;;4956334;28;20042;-81
2022/04/05 02:53:48;;;;;;;11.63;2.80;;;6.80;99.90;;;;;;4984926;28;20046;-81
2022/04/05 02:56:15;;;;;;;14.80;2.50;;;6.80;99.90;;;;;;4972261;28;20046;-81
2022/04/05 02:58:41;;;;;;;14.07;3.15;;;6.90;99.90;;;;;;4971558;28;20129;-81
2022/04/05 03:01:07;;;;;;;13.95;2.60;;;7.60;99.90;;;;;;4970794;28;20043;-81
2022/04/05 03:03:33;;;;;;;13.25;2.78;;;7.10;99.90;;;;;;4972646;28;20412;-81
2022/04/05 03:06:00;;;;;;;15.93;2.95;;;6.80;99.90;;;;;;4962963;28;20096;-85
2022/04/05 03:08:25;;;;;;;15.20;2.78;;;6.80;99.90;;;;;;4959696;28;20044;-85
2022/04/05 03:10:52;;;;;;;17.75;2.80;;;7.00;99.90;;;;;;4989897;28;20041;-80
2022/04/05 03:13:19;;;;;;;13.88;2.38;;;6.80;99.90;;;;;;4973960;28;20045;-80
2022/04/05 03:15:44;;;;;;;14.02;2.63;;;6.80;99.90;;;;;;4949428;28;20093;-80
2022/04/05 03:18:10;;;;;;;14.95;2.40;;;7.20;99.90;;;;;;4987022;23;20043;-81
2022/04/05 03:20:36;;;;;;;15.88;3.00;;;6.80;99.90;;;;;;4974821;28;20124;-82
2022/04/05 03:23:01;;;;;;;10.23;2.38;;;6.80;99.90;;;;;;4992370;28;20448;-83
2022/04/05 03:25:28;;;;;;;14.23;2.40;;;6.80;99.90;;;;;;4992989;28;20076;-83
2022/04/05 03:27:54;;;;;;;13.43;2.47;;;6.70;99.90;;;;;;4992757;28;20473;-83
2022/04/05 03:30:22;;;;;;;14.70;2.70;;;6.70;99.90;;;;;;4988932;28;20038;-83
2022/04/05 03:32:48;;;;;;;12.70;2.38;;;6.80;99.90;;;;;;4991242;28;20507;-83
2022/04/05 03:35:14;;;;;;;10.40;2.30;;;6.90;99.90;;;;;;4990924;28;20057;-84
2022/04/05 03:37:40;;;;;;;15.50;2.50;;;6.80;99.90;;;;;;4991157;28;20038;-83
2022/04/05 03:40:07;;;;;;;14.05;2.45;;;6.80;99.90;;;;;;4990844;28;20038;-81
2022/04/05 03:42:33;;;;;;;15.18;2.90;;;6.70;99.90;;;;;;4989167;28;20039;-80
2022/04/05 03:44:59;;;;;;;11.68;2.40;;;7.00;99.90;;;;;;4975302;28;20043;-80
2022/04/05 03:47:27;;;;;;;10.70;2.28;;;7.50;99.90;;;;;;4990741;28;20045;-80
2022/04/05 03:49:53;;;;;;;16.60;2.53;;;6.90;99.90;;;;;;4973868;28;20042;-80
2022/04/05 03:52:19;;;;;;;11.93;2.92;;;6.70;99.90;;;;;;4972185;28;20061;-80
2022/04/05 03:54:45;;;;;;;11.05;2.20;;;7.40;99.90;;;;;;4991192;28;20038;-80
2022/04/05 03:57:11;;;;;;;13.75;2.40;;;6.70;99.90;;;;;;4974970;28;20042;-80
2022/04/05 03:59:37;;;;;;;13.35;2.30;;;6.70;99.90;;;;;;4969467;28;20158;-80
2022/04/05 04:02:03;;;;;;;15.80;2.72;;;6.70;99.90;;;;;;4974312;28;20521;-80
2022/04/05 04:04:29;;;;;;;13.75;2.70;;;6.70;99.90;;;;;;4975642;28;20030;-80
2022/04/05 04:06:54;;;;;;;11.93;2.58;;;6.70;99.90;;;;;;4989289;28;20511;-80
2022/04/05 04:09:20;;;;;;;12.60;2.55;;;6.70;99.90;;;;;;4989922;28;20084;-80
2022/04/05 04:11:46;;;;;;;16.73;2.95;;;7.30;99.90;;;;;;4989531;28;20053;-84
2022/04/05 04:14:12;;;;;;;10.93;2.63;;;6.70;99.90;;;;;;4990558;28;20035;-83
2022/04/05 04:16:37;;;;;;;11.02;2.90;;;6.70;99.90;;;;;;4987202;28;20488;-83
2022/04/05 04:19:03;;;;;;;12.38;3.03;;;6.70;99.90;;;;;;4958197;28;20050;-83
2022/04/05 04:21:29;;;;;;;10.88;2.78;;;6.70;99.90;;;;;;4988767;28;20050;-83
2022/04/05 04:23:55;;;;;;;12.48;2.88;;;6.70;99.90;;;;;;4988506;28;20118;-83
2022/04/05 04:26:21;;;;;;;10.23;2.53;;;6.60;99.90;;;;;;4990340;28;20034;-83
2022/04/05 04:28:51;;;;;;;11.85;3.20;;;6.60;99.90;;;;;;4989926;28;20046;-84
2022/04/05 04:31:16;;;;;;;12.15;2.80;;;6.60;99.90;;;;;;4989967;28;20042;-84
2022/04/05 04:33:42;;;;;;;12.23;3.00;;;6.60;99.90;;;;;;4987185;28;20049;-84
2022/04/05 04:36:08;;;;;;;15.65;3.05;;;7.00;99.90;;;;;;4990563;28;20042;-84
2022/04/05 04:38:34;;;;;;;10.85;2.90;;;6.60;99.90;;;;;;4988107;28;20081;-84
2022/04/05 04:41:00;;;;;;;13.32;3.10;;;6.60;99.90;;;;;;4989337;28;20121;-84
2022/04/05 04:43:27;;;;;;;18.08;3.00;;;6.60;99.90;;;;;;4989155;28;20038;-84
2022/04/05 04:45:54;;;;;;;7.88;2.80;;;6.60;99.90;;;;;;4989306;28;20050;-83
2022/04/05 04:48:20;;;;;;;10.55;3.05;;;6.60;99.90;;;;;;4988477;28;20485;-83
2022/04/05 04:50:47;;;;;;;14.25;2.92;;;6.50;99.90;;;;;;4989228;28;20034;-82
2022/04/05 04:53:13;;;;;;;7.53;2.65;;;6.50;99.90;;;;;;4988787;28;20050;-82
2022/04/05 04:55:39;;;;;;;12.93;3.13;;;6.60;99.90;;;;;;4982349;28;20030;-82
2022/04/05 04:58:05;;;;;;;14.60;3.25;;;6.50;99.90;;;;;;4989844;28;20093;-82
2022/04/05 05:00:30;;;;;;;10.07;2.78;;;6.50;99.90;;;;;;4988183;28;20058;-82
2022/04/05 05:02:56;;;;;;;10.60;2.92;;;6.50;99.90;;;;;;4987839;28;20034;-85
2022/04/05 05:05:22;;;;;;;14.45;3.55;;;6.50;99.90;;;;;;4957790;28;20576;-85
2022/04/05 05:07:50;;;;;;;8.02;2.72;;;6.70;99.90;;;;;;4991485;28;20038;-85
2022/04/05 05:10:17;;;;;;;13.15;3.10;;;6.90;99.90;;;;;;4958779;28;20039;-85
2022/04/05 05:12:43;;;;;;;13.98;3.17;;;6.50;99.90;;;;;;4976404;28;20100;-85
2022/04/05 05:15:16;;;;;;;11.70;3.15;;;6.50;99.90;;;;;;4973795;28;20437;-85
2022/04/05 05:17:43;;;;;;;10.05;2.72;;;6.50;99.90;;;;;;4988052;28;20522;-85
2022/04/05 05:20:10;;;;;;;9.70;2.22;;;6.50;99.90;;;;;;5003665;28;20043;-82
2022/04/05 05:22:36;;;;;;;13.65;2.83;;;6.50;99.90;;;;;;4970365;28;20046;-82
2022/04/05 05:25:02;;;;;;;9.65;2.70;;;6.50;99.90;;;;;;4987672;28;20081;-83
2022/04/05 05:27:28;;;;;;;10.20;3.05;;;6.40;99.90;;;;;;4989144;28;20089;-83
2022/04/05 05:29:54;;;;;;;9.60;2.35;;;6.70;99.90;;;;;;5003262;28;20040;-82
2022/04/05 05:32:20;;;;;;;13.65;2.55;;;6.40;99.90;;;;;;4988178;28;20049;-84
2022/04/05 05:34:46;;;;;;;11.93;2.60;;;7.20;99.90;;;;;;4988909;28;20042;-81
2022/04/05 05:37:12;;;;;;;8.68;2.20;;;6.50;99.90;;;;;;4983665;28;20046;-80
2022/04/05 05:39:38;;;;;;;13.50;2.55;;;6.50;99.90;;;;;;4988663;28;20049;-80
2022/04/05 05:42:05;;;;;;;10.32;3.08;;;6.50;99.90;;;;;;4987626;28;20042;-80
2022/04/05 05:44:31;;;;;;;11.60;2.63;;;6.50;99.90;;;;;;4972385;28;20046;-80
2022/04/05 05:46:57;;;;;;;9.57;2.63;;;6.50;99.90;;;;;;4987267;28;20066;-80
2022/04/05 05:49:23;;;;;;;11.18;2.38;;;6.50;99.90;;;;;;5005792;28;20043;-79
2022/04/05 05:51:49;;;;;;;7.20;2.55;;;6.50;99.90;;;;;;4957728;28;20096;-85
2022/04/05 05:54:15;;;;;;;11.18;2.83;;;6.80;99.90;;;;;;4975714;28;20046;-85
2022/04/05 05:56:42;;;;;;;11.00;3.03;;;6.60;99.90;;;;;;4977236;28;20124;-86
2022/04/05 05:59:08;;;;;;;11.65;3.20;;;7.30;99.90;;;;;;4986523;28;20050;-86
2022/04/05 06:01:33;;;;;;;10.57;2.78;;;6.60;99.90;;;;;;4988953;28;20512;-85
2022/04/05 06:03:59;;;;;;;12.80;2.83;;;6.60;99.90;;;;;;4990309;28;20034;-85
2022/04/05 06:06:25;;;;;;;8.10;2.35;;;6.70;99.90;;;;;;4989624;28;20152;-86
2022/04/05 06:08:50;;;;;;;13.32;3.05;;;6.70;99.90;;;;;;4991930;28;20046;-84
2022/04/05 06:11:16;;;;;;;8.43;2.92;;;6.70;99.90;;;;;;4990743;28;20097;-84
2022/04/05 06:13:42;;;;;;;10.10;2.83;;;6.80;99.90;;;;;;4988073;28;20034;-84
2022/04/05 06:16:10;;;;;;;13.15;2.85;;;6.80;99.90;;;;;;4993377;28;20038;-84
2022/04/05 06:18:36;;;;;;;10.45;2.53;;;6.80;99.90;;;;;;4991361;28;20116;-84
2022/04/05 06:21:01;;;;;;;11.50;2.80;;;6.90;99.90;;;;;;4991248;28;20055;-85
2022/04/05 06:23:27;;;;;;;10.65;2.60;;;6.90;99.90;;;;;;5006797;28;20043;-84
2022/04/05 06:25:53;;;;;;;7.88;2.72;;;7.20;99.90;;;;;;4967463;28;20039;-80
2022/04/05 06:28:19;;;;;;;13.27;2.63;;;7.10;99.90;;;;;;4992779;28;20046;-80
2022/04/05 06:30:46;;;;;;;11.20;2.83;;;7.10;99.90;;;;;;4975907;28;20041;-80
2022/04/05 06:33:12;;;;;;;12.68;2.90;;;7.20;99.90;;;;;;4992271;28;20042;-80
2022/04/05 06:35:47;;;;;;;13.80;2.55;;;7.20;99.90;;;;;;4991786;28;20518;-80
2022/04/05 06:38:13;;;;;;;14.07;3.05;;;7.30;99.90;;;;;;4992187;28;20054;-80
2022/04/05 06:40:41;;;;;;;13.27;2.90;;;7.30;99.90;;;;;;4991046;28;20477;-80
2022/04/05 06:43:07;;;;;;;10.75;2.95;;;7.40;99.90;;;;;;4990708;28;20125;-81
2022/04/05 06:45:34;;;;;;;13.73;3.13;;;7.70;99.90;;;;;;4990665;28;20047;-81
2022/04/05 06:48:00;;;;;;;10.23;2.90;;;7.40;99.90;;;;;;4991654;28;20050;-81
2022/04/05 06:50:26;;;;;;;10.77;2.72;;;7.50;99.90;;;;;;4974560;28;20045;-81
2022/04/05 06:52:54;;;;;;;7.80;2.40;;;7.60;99.90;;;;;;4992633;28;20042;-81
2022/04/05 06:55:20;;;;;;;8.88;2.60;;;7.50;99.90;;;;;;4975787;28;20070;-81
2022/04/05 06:57:47;;;;;;;12.45;2.92;;;7.60;99.90;;;;;;4991186;28;20093;-81
2022/04/05 07:00:14;;;;;;;9.85;2.75;;;7.60;99.90;;;;;;5006861;28;20450;-81
2022/04/05 07:02:41;;;;;;;10.35;3.05;;;7.60;99.90;;;;;;4975872;28;20038;-81
2022/04/05 07:05:08;;;;;;;8.13;2.53;;;7.60;99.90;;;;;;4991787;28;20488;-81
2022/04/05 07:07:34;;;;;;;7.63;2.30;;;7.60;99.90;;;;;;4991308;28;20042;-81
2022/04/05 07:09:59;;;;;;;8.88;2.40;;;7.70;99.90;;;;;;4988680;28;20049;-82
2022/04/05 07:12:25;;;;;;;7.43;2.20;;;7.70;99.90;;;;;;4990621;28;20038;-82
2022/04/05 07:14:51;;;;;;;6.88;2.15;;;7.60;99.90;;;;;;4991448;28;20046;-81
2022/04/05 07:17:18;;;;;;;8.18;2.50;;;7.70;99.90;;;;;;4975591;28;20074;-80
2022/04/05 07:19:43;;;;;;;7.03;2.42;;;7.70;99.90;;;;;;4990198;28;20071;-81
2022/04/05 07:22:09;;;;;;;11.23;2.35;;;7.70;99.90;;;;;;4972445;28;20043;-80
2022/04/05 07:24:35;;;;;;;6.28;2.30;;;7.90;99.90;;;;;;4989312;28;20038;-80
2022/04/05 07:27:00;;;;;;;9.20;2.20;;;7.70;99.90;;;;;;4988979;28;20041;-80
2022/04/05 07:29:26;;;;;;;9.13;2.50;;;7.80;99.90;;;;;;4991527;28;20045;-80
2022/04/05 07:31:52;;;;;;;7.20;2.28;;;7.70;99.90;;;;;;4988736;28;20041;-80
2022/04/05 07:34:18;;;;;;;7.93;2.45;;;7.80;99.90;;;;;;4990536;28;20034;-80
2022/04/05 07:36:43;;;;;;;6.25;2.08;;;7.70;99.90;;;;;;4974629;28;20089;-80
2022/04/05 07:39:09;;;;;;;7.45;2.28;;;7.80;99.90;;;;;;4975221;28;20133;-81
2022/04/05 07:41:35;;;;;;;5.30;1.80;;;7.70;99.90;;;;;;4990759;28;20073;-80
2022/04/05 07:44:01;;;;;;;9.07;2.47;;;7.80;99.90;;;;;;4974967;28;20044;-81
2022/04/05 07:46:27;;;;;;;6.05;1.95;;;7.80;99.90;;;;;;4992182;28;20389;-81
2022/04/05 07:48:53;;;;;;;5.55;2.00;;;8.00;99.90;;;;;;4992008;28;20046;-80
2022/04/05 07:51:19;;;;;;;7.88;2.47;;;7.90;99.90;;;;;;4987366;28;20042;-80
2022/04/05 07:53:45;;;;;;;8.48;1.90;;;8.60;99.90;;;;;;4990758;28;20125;-80
2022/04/05 07:56:13;;;;;;;8.60;2.13;;;8.10;99.90;;;;;;4991283;28;20046;-80
2022/04/05 07:58:43;;;;;;;6.90;2.10;;;8.30;99.90;;;;;;4990889;28;20137;-78
2022/04/05 08:01:09;;;;;;;9.45;2.30;;;8.30;99.90;;;;;;4988745;28;20054;-78
2022/04/05 08:03:36;;;;;;;8.10;2.45;;;8.40;99.90;;;;;;4990134;28;20040;-78
2022/04/05 08:06:02;;;;;;;9.15;2.00;;;8.40;99.90;;;;;;4989263;28;20464;-82
2022/04/05 08:08:29;;;;;;;6.18;2.15;;;8.40;99.90;;;;;;4991358;28;20046;-82
2022/04/05 08:10:55;;;;;;;9.35;2.20;;;8.40;99.90;;;;;;4978557;28;20046;-82
2022/04/05 08:13:21;;;;;;;9.35;2.38;;;8.40;99.90;;;;;;4975522;28;20100;-82
2022/04/05 08:15:46;;;;;;;7.93;2.30;;;8.50;99.90;;;;;;4987941;28;20034;-82
2022/04/05 08:18:13;;;;;;;8.40;2.15;;;8.60;99.90;;;;;;4970000;28;20116;-82
2022/04/05 08:20:42;;;;;;;6.38;1.98;;;8.70;99.90;;;;;;4972713;28;20053;-82
2022/04/05 08:23:08;;;;;;;5.80;1.80;;;8.70;99.90;;;;;;4987536;28;20042;-78
2022/04/05 08:25:34;;;;;;;9.93;1.95;;;8.90;99.90;;;;;;4989362;28;20416;-79
2022/04/05 08:28:00;;;;;;;6.22;1.98;;;8.80;99.90;;;;;;4989704;28;20045;-78
2022/04/05 08:30:26;;;;;;;6.68;2.03;;;8.80;99.90;;;;;;4973070;28;20034;-78
2022/04/05 08:32:51;;;;;;;7.45;2.03;;;8.90;99.90;;;;;;4973988;28;20045;-87
2022/04/05 08:35:20;;;;;;;8.98;2.00;;;8.80;99.90;;;;;;4990077;28;20441;-85
2022/04/05 08:37:47;;;;;;;9.90;2.17;;;8.70;99.90;;;;;;4972404;28;20046;-82
2022/04/05 08:40:15;;;;;;;7.97;2.08;;;8.60;99.90;;;;;;4988177;28;20523;-79
2022/04/05 08:42:45;;;;;;;6.63;2.10;;;8.60;99.90;;;;;;4989266;28;20068;-79
2022/04/05 08:45:13;;;;;;;7.75;2.10;;;8.60;99.90;;;;;;4988125;28;20049;-79
2022/04/05 08:47:51;;;;;;;4.93;1.70;;;8.50;99.90;;;;;;4988787;28;20200;-79
2022/04/05 08:50:23;;;;;;;7.30;2.03;;;8.60;99.90;;;;;;4974165;28;20092;-79
2022/04/05 08:52:49;;;;;;;6.07;2.35;;;8.60;99.90;;;;;;4988658;28;20050;-79
2022/04/05 08:55:17;;;;;;;5.32;2.00;;;8.60;99.90;;;;;;4988577;28;20034;-79
2022/04/05 08:57:43;;;;;;;8.27;2.05;;;8.60;99.90;;;;;;4969575;28;20038;-79
2022/04/05 09:00:11;;;;;;;9.27;2.15;;;8.50;99.90;;;;;;4979957;28;20042;-79
2022/04/05 09:02:37;;;;;;;7.35;2.20;;;8.50;99.90;;;;;;4991345;28;20122;-79
2022/04/05 09:05:04;;;;;;;9.75;2.13;;;8.70;99.90;;;;;;4988383;28;20050;-79
2022/04/05 09:07:37;;;;;;;4.57;1.65;;;8.70;99.90;;;;;;4989009;28;20042;-79
2022/04/05 09:10:17;;;;;;;4.50;1.77;;;8.80;99.90;;;;;;4972376;28;20492;-79
2022/04/05 09:12:44;;;;;;;7.72;1.90;;;8.70;99.90;;;;;;4988979;28;20511;-83
2022/04/05 09:15:22;;;;;;;6.53;1.92;;;8.70;99.90;;;;;;4986839;28;20060;-83
2022/04/05 09:17:49;;;;;;;5.90;1.88;;;8.70;99.90;;;;;;4984887;28;20046;-82
2022/04/05 09:20:17;;;;;;;3.53;1.55;;;8.90;99.90;;;;;;4975779;28;20053;-82
2022/04/05 09:22:43;;;;;;;3.50;1.85;;;9.00;99.90;;;;;;4977427;28;20397;-83
2022/04/05 09:25:15;;;;;;;3.65;1.60;;;9.10;99.90;;;;;;4960365;28;20045;-83
2022/04/05 09:27:58;;;;;;;5.20;1.48;;;9.10;99.90;;;;;;4971162;28;20193;-84
2022/04/05 09:30:23;;;;;;;3.80;1.70;;;9.00;99.90;;;;;;4977710;28;20050;-83
2022/04/05 09:32:51;;;;;;;2.78;1.40;;;9.10;99.90;;;;;;4979093;28;20095;-83
2022/04/05 09:35:29;;;;;;;4.20;1.70;;;8.90;99.90;;;;;;4979473;28;20035;-82
2022/04/05 09:38:16;;;;;;;4.00;1.52;;;9.00;99.90;;;;;;4979228;28;20469;-83
2022/04/05 09:40:42;;;;;;;5.38;2.92;;;9.00;99.90;;;;;;4977258;28;20120;-83
2022/04/05 09:43:16;;;;;;;8.77;4.32;;;9.10;99.90;;;;;;4979911;28;20088;-83
2022/04/05 09:45:48;;;;;;;2.50;1.67;;;9.10;99.90;;;;;;4977376;28;20046;-79
2022/04/05 09:48:17;;;;;;;3.00;1.85;;;9.10;99.90;;;;;;4963609;28;20034;-79
2022/04/05 09:51:06;;;;;;;3.92;1.40;;;9.20;99.90;;;;;;4994509;28;20038;-79
2022/04/05 09:53:43;;;;;;;3.45;1.27;;;9.20;99.90;;;;;;4979648;28;20074;-79
2022/04/05 09:56:19;;;;;;;3.20;1.20;;;9.30;99.90;;;;;;4976967;28;20093;-79
2022/04/05 09:59:03;;;;;;;2.25;1.30;;;9.20;99.90;;;;;;4979994;28;20046;-79
2022/04/05 10:01:30;;;;;;;2.35;1.40;;;9.30;99.90;;;;;;4978119;28;20050;-82
2022/04/05 10:04:12;;;;;;;2.08;1.30;;;9.40;99.90;;;;;;4948481;28;20038;-82
2022/04/05 10:06:43;;;;;;;1.73;1.13;;;9.40;99.90;;;;;;4972403;28;20035;-83
2022/04/05 10:09:09;;;;;;;1.67;1.00;;;9.60;99.90;;;;;;4965578;28;20615;-83
2022/04/05 10:11:38;;;;;;;2.67;1.23;;;9.60;99.90;;;;;;4964776;28;20044;-83
2022/04/05 10:14:05;;;;;;;2.47;1.33;;;9.60;99.90;;;;;;4963482;28;20041;-83
2022/04/05 10:16:32;;;;;;;3.50;1.40;;;9.60;99.90;;;;;;4963919;28;20489;-79
2022/04/05 10:19:00;;;;;;;1.95;1.27;;;9.60;99.90;;;;;;4992013;28;20050;-85
2022/04/05 10:21:28;;;;;;;2.20;1.30;;;9.90;99.90;;;;;;4996493;28;20404;-86
2022/04/05 10:23:56;;;;;;;2.65;1.27;;;9.70;99.90;;;;;;4994144;28;20042;-85
2022/04/05 10:26:34;;;;;;;2.13;1.20;;;9.70;99.90;;;;;;4994923;28;20047;-85
2022/04/05 10:29:03;;;;;;;3.08;1.40;;;9.80;99.90;;;;;;4996720;28;20121;-85
2022/04/05 10:31:45;;;;;;;1.35;1.02;;;9.90;99.90;;;;;;4988245;28;20045;-85
2022/04/05 10:34:18;;;;;;;2.08;1.30;;;9.60;99.90;;;;;;4978242;28;20046;-85
2022/04/05 10:37:07;;;;;;;1.67;1.13;;;9.80;99.90;;;;;;4996715;28;20050;-80
2022/04/05 10:39:33;;;;;;;1.48;1.30;;;9.90;99.90;;;;;;4996464;28;20073;-80
2022/04/05 10:42:11;;;;;;;2.08;1.38;;;10.10;99.90;;;;;;5008158;28;20074;-80
2022/04/05 10:44:40;;;;;;;1.30;1.20;;;10.00;99.90;;;;;;4992823;28;20042;-80
2022/04/05 10:47:07;;;;;;;2.03;1.30;;;10.30;99.90;;;;;;5008022;28;20065;-80
2022/04/05 10:49:39;;;;;;;2.60;1.27;;;10.60;99.90;;;;;;4977866;28;20396;-80
2022/04/05 10:52:20;;;;;;;2.38;1.52;;;11.20;99.90;;;;;;4976562;28;20492;-83
2022/04/05 10:54:49;;;;;;;1.40;1.10;;;11.60;99.90;;;;;;4977412;28;20042;-83
2022/04/05 10:57:26;;;;;;;2.25;1.55;;;11.70;99.90;;;;;;4992781;28;20108;-82
2022/04/05 11:00:10;;;;;;;3.13;1.77;;;11.80;99.90;;;;;;4992668;28;20495;-83
2022/04/05 11:02:51;;;;;;;2.22;1.65;;;11.70;99.90;;;;;;4992473;28;20038;-79
2022/04/05 11:05:18;;;;;;;1.98;1.50;;;11.60;99.90;;;;;;4989573;28;20452;-79
2022/04/05 11:08:01;;;;;;;2.28;1.52;;;11.80;99.90;;;;;;4988902;28;20072;-79
2022/04/05 11:10:44;;;;;;;3.13;1.90;;;12.10;99.90;;;;;;4971822;28;20049;-78
2022/04/05 11:13:13;;;;;;;2.53;1.75;;;12.50;99.90;;;;;;4990211;28;20473;-79
2022/04/05 11:15:53;;;;;;;3.38;2.00;;;13.00;99.90;;;;;;4972000;28;20048;-79
2022/04/05 11:18:22;;;;;;;2.90;1.95;;;12.80;99.90;;;;;;4989528;28;20396;-79
2022/04/05 11:20:50;;;;;;;3.20;1.90;;;12.60;99.90;;;;;;4998982;28;20362;-79
2022/04/05 11:23:20;;;;;;;3.72;2.33;;;12.40;99.90;;;;;;4985771;28;20042;-78
2022/04/05 11:25:47;;;;;;;3.85;2.25;;;12.30;99.90;;;;;;4974574;28;20366;-85
2022/04/05 11:28:12;;;;;;;3.00;2.20;;;12.20;99.90;;;;;;4958055;28;20041;-85
2022/04/05 11:30:56;;;;;;;3.63;2.40;;;12.00;99.90;;;;;;4990528;28;20054;-86
2022/04/05 11:33:33;;;;;;;3.58;2.40;;;12.10;99.90;;;;;;4964652;28;20077;-85
2022/04/05 11:36:13;;;;;;;3.78;2.75;;;12.30;99.90;;;;;;4990380;28;20133;-85
2022/04/05 11:38:50;;;;;;;4.10;3.00;;;12.50;99.90;;;;;;4992155;28;20481;-85
2022/04/05 11:41:46;;;;;;;3.65;2.70;;;12.40;99.90;;;;;;4991279;28;20053;-85
2022/04/05 11:44:14;;;;;;;3.90;3.05;;;12.30;99.90;;;;;;4972946;28;20046;-83
2022/04/05 11:46:41;;;;;;;4.30;3.30;;;12.30;99.90;;;;;;4991119;28;20500;-82
2022/04/05 11:49:10;;;;;;;4.20;2.97;;;12.30;99.90;;;;;;4991976;28;20035;-82
2022/04/05 11:51:43;;;;;;;5.53;3.22;;;12.40;99.90;;;;;;4990984;28;20050;-82
2022/04/05 11:54:17;;;;;;;4.20;3.22;;;12.50;99.90;;;;;;4990714;28;20050;-82
2022/04/05 11:56:44;;;;;;;5.30;3.90;;;12.30;99.90;;;;;;4989690;28;20492;-82
2022/04/05 11:59:15;;;;;;;6.15;4.25;;;12.20;99.90;;;;;;4991253;28;20385;-83
2022/04/05 12:01:42;;;;;;;5.10;3.97;;;12.20;99.90;;;;;;4989315;28;20497;-82
2022/04/05 12:04:09;;;;;;;5.30;3.78;;;12.10;99.90;;;;;;4988900;28;20065;-82
2022/04/05 12:06:38;;;;;;;5.90;3.90;;;12.20;99.90;;;;;;4973123;28;20030;-82
2022/04/05 12:09:10;;;;;;;5.55;4.07;;;12.30;99.90;;;;;;4989585;28;20120;-83
2022/04/05 12:11:38;;;;;;;6.63;4.10;;;12.50;99.90;;;;;;4990265;28;20409;-83
2022/04/05 12:14:06;;;;;;;6.20;4.20;;;12.80;99.90;;;;;;4989260;28;20476;-79
2022/04/05 12:17:00;;;;;;;5.18;3.90;;;13.00;99.90;;;;;;4987375;28;20050;-85
2022/04/05 12:19:39;;;;;;;6.00;4.35;;;13.20;99.90;;;;;;4988479;28;20050;-85
2022/04/05 12:22:07;;;;;;;6.22;4.18;;;12.90;99.90;;;;;;4985627;28;20397;-86
2022/04/05 12:24:35;;;;;;;7.00;4.45;;;12.70;99.90;;;;;;4968269;28;20042;-84
2022/04/05 12:27:03;;;;;;;7.93;4.65;;;12.30;99.90;;;;;;4988554;28;20076;-85
2022/04/05 12:29:30;;;;;;;8.52;4.45;;;12.00;99.90;;;;;;4986505;28;20516;-84
2022/04/05 12:32:04;;;;;;;11.77;5.05;;;11.80;99.90;;;;;;4993616;28;20168;-80
2022/04/05 12:34:30;;;;;;;7.10;4.90;;;11.80;99.90;;;;;;4972169;28;20495;-80
2022/04/05 12:36:58;;;;;;;12.45;4.57;;;11.60;99.90;;;;;;4988830;28;20048;-84
2022/04/05 12:39:26;;;;;;;9.52;4.65;;;11.50;99.90;;;;;;4989384;28;20515;-84
2022/04/05 12:41:57;;;;;;;10.40;4.00;;;11.30;99.90;;;;;;4990638;28;20042;-84
2022/04/05 12:44:27;;;;;;;9.02;4.75;;;11.30;99.90;;;;;;4990088;28;20034;-85
2022/04/05 12:46:57;;;;;;;9.65;4.85;;;11.10;99.90;;;;;;4995054;28;20125;-85
2022/04/05 12:49:34;;;;;;;13.32;5.70;;;10.80;99.90;;;;;;4988612;28;20030;-85
2022/04/05 12:52:20;;;;;;;13.02;6.03;;;10.70;99.90;;;;;;4987610;28;20070;-85
2022/04/05 12:55:04;;;;;;;12.57;6.07;;;10.60;99.90;;;;;;4974502;28;20042;-85